Terminal Aerodrome Forecast
Issued by NWS North Platte, NE

Home | Current Version | Previous Version | Text Only | Print | Product List | Glossary On
Versions: 1 2 3 4 5 6 7 8 9 10 11 12 13 14 15
000
FTUS43 KLBF 131139
TAFVTN
TAF
KVTN 131139Z 1312/1412 31022G33KT P6SM FEW250
     FM132200 33019G28KT P6SM FEW250
     FM140100 33012KT P6SM BKN250
     FM140700 32008KT P6SM BKN060=

USA.gov is the U.S. government's official web portal to all federal, state and local government web resources and services.